createdAt,value
2018-06-29T00:00:53.372Z,77.98
2018-06-29T00:03:24.921Z,77.58
2018-06-29T00:05:55.833Z,77.42
2018-06-29T00:08:26.473Z,76.89
2018-06-29T00:10:56.921Z,77.59
2018-06-29T00:13:28.339Z,76.87
2018-06-29T00:15:58.325Z,76.66
2018-06-29T00:18:29.201Z,76.33
2018-06-29T00:20:59.238Z,77.59
2018-06-29T00:23:31.208Z,77.89
2018-06-29T00:26:02.193Z,78.09
2018-06-29T00:28:32.505Z,78.96
2018-06-29T00:31:02.696Z,77.66
2018-06-29T00:33:33.966Z,78.25
2018-06-29T00:36:06.008Z,79.34
2018-06-29T00:38:36.425Z,78.45
2018-06-29T00:41:09.745Z,78.82
2018-06-29T00:43:40.497Z,79.05
2018-06-29T00:46:12.447Z,78.80
2018-06-29T00:48:42.646Z,78.50
2018-06-29T00:51:13.478Z,79.37
2018-06-29T00:53:44.336Z,79.77
2018-06-29T00:56:14.333Z,79.44
2018-06-29T00:58:44.873Z,79.34
2018-06-29T01:01:15.525Z,78.80
2018-06-29T01:03:45.783Z,78.79
2018-06-29T01:06:15.936Z,78.60
2018-06-29T01:08:46.272Z,78.64
2018-06-29T01:11:17.399Z,79.97
2018-06-29T01:13:48.092Z,79.01
2018-06-29T01:16:18.526Z,79.17
2018-06-29T01:18:49.149Z,78.44
2018-06-29T01:21:19.408Z,78.81
2018-06-29T01:23:49.708Z,79.36
2018-06-29T01:26:21.493Z,79.13
2018-06-29T01:28:52.012Z,79.21
2018-06-29T01:31:22.094Z,79.47
2018-06-29T01:33:52.690Z,79.63
2018-06-29T01:36:23.574Z,80.05
2018-06-29T01:38:53.938Z,79.60
2018-06-29T01:41:24.519Z,79.74
2018-06-29T01:43:55.678Z,80.21
2018-06-29T01:46:26.049Z,81.08
2018-06-29T01:48:56.441Z,81.68
2018-06-29T01:51:26.312Z,81.57
2018-06-29T01:53:56.297Z,80.53
2018-06-29T01:56:27.080Z,80.63
2018-06-29T01:58:57.327Z,81.14
2018-06-29T02:01:27.745Z,79.77
2018-06-29T02:03:57.809Z,80.16
2018-06-29T02:06:28.531Z,80.34
2018-06-29T02:08:58.638Z,80.20
2018-06-29T02:11:28.693Z,78.04
2018-06-29T02:13:58.990Z,78.61
2018-06-29T02:16:29.536Z,79.11
2018-06-29T02:18:59.918Z,79.07
2018-06-29T02:21:30.137Z,78.38
2018-06-29T02:24:00.448Z,78.40
2018-06-29T02:26:31.108Z,77.48
2018-06-29T02:29:01.125Z,78.02
2018-06-29T02:31:31.241Z,78.55
2018-06-29T02:34:02.256Z,79.10
2018-06-29T02:36:32.500Z,79.21
2018-06-29T02:39:02.482Z,79.31
2018-06-29T02:41:32.800Z,77.99
2018-06-29T02:44:03.068Z,79.76
2018-06-29T02:46:35.036Z,79.21
2018-06-29T02:49:05.875Z,79.46
2018-06-29T02:51:36.706Z,78.49
2018-06-29T02:54:07.530Z,79.05
2018-06-29T02:56:37.729Z,79.38
2018-06-29T02:59:08.585Z,79.95
2018-06-29T03:01:39.308Z,80.24
2018-06-29T03:04:11.016Z,79.42
2018-06-29T03:06:41.252Z,79.65
2018-06-29T03:09:12.015Z,80.34
2018-06-29T03:11:42.194Z,80.07
2018-06-29T03:14:13.020Z,80.58
2018-06-29T03:16:43.799Z,80.30
2018-06-29T03:19:14.219Z,80.17
2018-06-29T03:21:45.577Z,79.29
2018-06-29T03:24:15.598Z,79.95
2018-06-29T03:26:45.913Z,79.82
2018-06-29T03:29:16.179Z,80.03
2018-06-29T03:31:46.945Z,79.20
2018-06-29T03:34:18.125Z,80.36
2018-06-29T03:36:48.723Z,80.01
2018-06-29T03:39:20.621Z,79.89
2018-06-29T03:41:51.118Z,79.83
2018-06-29T03:44:22.803Z,79.73
2018-06-29T03:46:54.039Z,79.17
2018-06-29T03:49:24.571Z,79.06
2018-06-29T03:51:55.766Z,77.96
2018-06-29T03:54:26.172Z,78.31
2018-06-29T03:56:57.817Z,77.89
2018-06-29T03:59:28.276Z,78.27
2018-06-29T04:01:58.624Z,77.78
2018-06-29T04:04:28.984Z,78.34
2018-06-29T04:06:59.008Z,78.81
2018-06-29T04:09:29.857Z,78.46
2018-06-29T04:12:00.289Z,78.18
2018-06-29T04:14:30.434Z,78.39
2018-06-29T04:17:00.561Z,77.65
2018-06-29T04:19:30.811Z,77.35
2018-06-29T04:22:01.813Z,78.93
2018-06-29T04:24:33.000Z,78.75
2018-06-29T04:27:04.856Z,79.48
2018-06-29T04:29:35.807Z,79.45
2018-06-29T04:32:06.764Z,78.96
2018-06-29T04:34:37.355Z,78.39
2018-06-29T04:37:10.121Z,77.94
2018-06-29T04:39:40.334Z,77.23
2018-06-29T04:42:11.417Z,78.52
2018-06-29T04:44:41.697Z,77.96
2018-06-29T04:47:12.213Z,77.62
2018-06-29T04:49:43.912Z,77.55
2018-06-29T04:52:15.077Z,77.07
2018-06-29T04:54:46.138Z,77.21
2018-06-29T04:57:16.988Z,77.34
2018-06-29T04:59:47.769Z,77.79
2018-06-29T05:02:18.449Z,77.96
2018-06-29T05:04:49.304Z,77.64
2018-06-29T05:07:19.964Z,76.19
2018-06-29T05:09:52.211Z,76.99
2018-06-29T05:12:23.348Z,77.13
2018-06-29T05:14:54.460Z,78.29
2018-06-29T05:17:25.399Z,78.03
2018-06-29T05:19:55.764Z,77.56
2018-06-29T05:22:26.857Z,77.66
2018-06-29T05:24:57.160Z,77.96
2018-06-29T05:27:27.925Z,77.60
2018-06-29T05:29:59.471Z,76.44
2018-06-29T05:32:30.018Z,76.65
2018-06-29T05:35:00.581Z,76.04
2018-06-29T05:37:31.374Z,76.14
2018-06-29T05:40:01.565Z,77.67
2018-06-29T05:42:32.795Z,76.52
2018-06-29T05:45:03.484Z,76.86
2018-06-29T05:47:34.444Z,75.09
2018-06-29T05:50:06.068Z,75.59
2018-06-29T05:52:38.407Z,76.07
2018-06-29T05:55:09.333Z,75.73
2018-06-29T05:57:39.818Z,75.58
2018-06-29T06:00:10.545Z,75.29
2018-06-29T06:02:41.169Z,75.88
2018-06-29T06:05:12.065Z,74.82
2018-06-29T06:07:42.208Z,75.50
2018-06-29T06:10:12.801Z,75.49
2018-06-29T06:12:43.517Z,75.35
2018-06-29T06:15:14.480Z,75.63
2018-06-29T06:17:46.656Z,74.60
2018-06-29T06:20:17.300Z,75.40
2018-06-29T06:22:47.752Z,76.02
2018-06-29T06:25:18.180Z,76.38
2018-06-29T06:27:49.288Z,74.95
2018-06-29T06:30:19.584Z,76.38
2018-06-29T06:32:50.507Z,75.98
2018-06-29T06:35:21.108Z,76.79
2018-06-29T06:37:51.902Z,76.26
2018-06-29T06:40:22.908Z,76.18
2018-06-29T06:42:53.374Z,76.38
2018-06-29T06:45:24.089Z,74.80
2018-06-29T06:47:54.928Z,75.65
2018-06-29T06:50:25.363Z,75.91
2018-06-29T06:52:55.863Z,75.83
2018-06-29T06:55:26.419Z,74.88
2018-06-29T06:57:56.685Z,75.53
2018-06-29T07:00:27.147Z,76.05
2018-06-29T07:02:57.946Z,76.84
2018-06-29T07:05:28.157Z,76.96
2018-06-29T07:07:58.806Z,76.54
2018-06-29T07:10:28.995Z,76.75
2018-06-29T07:13:00.753Z,77.25
2018-06-29T07:15:31.785Z,77.62
2018-06-29T07:18:02.639Z,78.25
2018-06-29T07:20:33.457Z,77.55
2018-06-29T07:23:04.096Z,77.53
2018-06-29T07:25:35.849Z,77.48
2018-06-29T07:28:06.814Z,77.22
2018-06-29T07:30:37.900Z,77.13
2018-06-29T07:33:08.328Z,76.19
2018-06-29T07:35:38.823Z,76.31
2018-06-29T07:38:09.384Z,75.22
2018-06-29T07:40:39.400Z,75.33
2018-06-29T07:43:09.956Z,74.58
2018-06-29T07:45:40.188Z,74.71
2018-06-29T07:48:11.428Z,75.86
2018-06-29T07:50:42.119Z,75.68
2018-06-29T07:53:12.488Z,76.60
2018-06-29T07:55:42.985Z,76.92
2018-06-29T07:58:13.665Z,75.78
2018-06-29T08:00:44.303Z,76.50
2018-06-29T08:03:15.084Z,77.19
2018-06-29T08:05:45.912Z,77.01
2018-06-29T08:08:16.708Z,77.37
2018-06-29T08:10:47.511Z,78.22
2018-06-29T08:13:18.475Z,77.66
2018-06-29T08:15:48.863Z,78.38
2018-06-29T08:18:19.012Z,77.81
2018-06-29T08:20:49.246Z,77.89
2018-06-29T08:23:20.463Z,78.82
2018-06-29T08:25:51.209Z,79.33
2018-06-29T08:28:21.530Z,77.33
2018-06-29T08:30:52.157Z,78.02
2018-06-29T08:33:22.813Z,78.06
2018-06-29T08:35:53.854Z,78.51
2018-06-29T08:38:24.533Z,78.35
2018-06-29T08:40:54.910Z,78.25
2018-06-29T08:43:25.750Z,78.21
2018-06-29T08:45:57.074Z,79.24
2018-06-29T08:48:28.032Z,79.19
2018-06-29T08:51:00.076Z,78.58
2018-06-29T08:53:31.569Z,77.73
2018-06-29T08:56:02.714Z,77.62
2018-06-29T08:58:33.672Z,77.20
2018-06-29T09:01:04.541Z,76.34
2018-06-29T09:03:35.624Z,74.82
2018-06-29T09:06:06.736Z,74.76
2018-06-29T09:08:37.095Z,73.83
2018-06-29T09:11:07.529Z,73.00
2018-06-29T09:13:38.749Z,73.96
2018-06-29T09:16:09.275Z,73.29
2018-06-29T09:18:40.356Z,74.18
2018-06-29T09:21:11.194Z,73.68
2018-06-29T09:23:41.615Z,73.77
2018-06-29T09:26:11.686Z,74.07
2018-06-29T09:28:42.960Z,73.66
2018-06-29T09:31:13.182Z,74.01
2018-06-29T09:33:43.575Z,73.16
2018-06-29T09:36:15.860Z,73.59
2018-06-29T09:38:46.259Z,73.39
2018-06-29T09:41:16.610Z,73.75
2018-06-29T09:43:47.063Z,73.34
2018-06-29T09:46:17.372Z,73.24
2018-06-29T09:48:48.550Z,74.05
2018-06-29T09:51:18.741Z,73.78
2018-06-29T09:53:48.954Z,72.77
2018-06-29T09:56:19.319Z,73.14
2018-06-29T09:58:50.057Z,73.44
2018-06-29T10:01:20.587Z,72.86
2018-06-29T10:03:51.016Z,71.19
2018-06-29T10:06:21.260Z,72.70
2018-06-29T10:08:51.735Z,73.45
2018-06-29T10:11:21.909Z,73.32
2018-06-29T10:13:52.217Z,73.39
2018-06-29T10:16:23.150Z,74.57
2018-06-29T10:18:54.213Z,74.86
2018-06-29T10:21:24.836Z,74.86
2018-06-29T10:23:54.976Z,75.34
2018-06-29T10:26:25.284Z,75.18
2018-06-29T10:28:55.438Z,75.45
2018-06-29T10:31:26.563Z,75.47
2018-06-29T10:33:56.613Z,75.65
2018-06-29T10:36:27.413Z,76.57
2018-06-29T10:39:00.402Z,75.69
2018-06-29T10:41:30.693Z,75.90
2018-06-29T10:44:01.421Z,76.02
2018-06-29T10:46:31.888Z,75.67
2018-06-29T10:49:02.370Z,76.54
2018-06-29T10:51:33.823Z,76.77
2018-06-29T10:54:04.153Z,78.00
2018-06-29T10:56:35.009Z,77.76
2018-06-29T10:59:05.285Z,78.43
2018-06-29T11:01:35.461Z,78.12
2018-06-29T11:04:08.470Z,78.68
2018-06-29T11:06:39.617Z,79.81
2018-06-29T11:09:15.984Z,80.02
2018-06-29T11:11:47.080Z,80.51
2018-06-29T11:14:17.565Z,80.33
2018-06-29T11:16:47.991Z,81.30
2018-06-29T11:19:19.723Z,81.82
2018-06-29T11:21:50.312Z,82.17
2018-06-29T11:24:20.471Z,82.13
2018-06-29T11:26:50.749Z,82.05
2018-06-29T11:29:22.255Z,81.46
2018-06-29T11:31:53.304Z,81.99
2018-06-29T11:34:23.711Z,81.56
2018-06-29T11:36:54.160Z,82.06
2018-06-29T11:39:24.435Z,80.45
2018-06-29T11:41:54.606Z,80.08
2018-06-29T11:44:24.801Z,79.83
2018-06-29T11:46:55.431Z,78.92
2018-06-29T11:49:25.797Z,78.44
2018-06-29T11:51:56.384Z,76.45
2018-06-29T11:54:26.834Z,78.09
2018-06-29T11:56:57.759Z,76.87
2018-06-29T11:59:27.831Z,77.88
2018-06-29T12:01:58.474Z,77.84
2018-06-29T12:04:28.520Z,78.51
2018-06-29T12:06:58.765Z,78.34
2018-06-29T12:09:29.423Z,78.90
2018-06-29T12:11:59.657Z,78.13
2018-06-29T12:14:30.045Z,77.67
2018-06-29T12:17:00.269Z,77.38
2018-06-29T12:19:31.302Z,77.29
2018-06-29T12:22:01.737Z,77.53
2018-06-29T12:24:32.421Z,77.47
2018-06-29T12:27:03.064Z,77.02
2018-06-29T12:29:34.363Z,77.83
2018-06-29T12:32:04.490Z,78.59
2018-06-29T12:34:34.776Z,78.18
2018-06-29T12:37:05.168Z,76.66
2018-06-29T12:39:35.290Z,77.84
2018-06-29T12:42:05.528Z,78.38
2018-06-29T12:44:36.192Z,78.26
2018-06-29T12:47:06.557Z,78.46
2018-06-29T12:49:36.534Z,78.54
2018-06-29T12:52:07.073Z,78.17
2018-06-29T12:54:36.999Z,79.65
2018-06-29T12:57:06.932Z,79.33
2018-06-29T12:59:37.329Z,79.34
2018-06-29T13:02:07.801Z,78.32
2018-06-29T13:04:38.029Z,78.59
2018-06-29T13:07:08.295Z,78.79
2018-06-29T13:09:38.762Z,78.52
2018-06-29T13:12:08.655Z,77.62
2018-06-29T13:14:39.145Z,76.64
2018-06-29T13:17:09.003Z,75.99
2018-06-29T13:19:38.856Z,75.93
2018-06-29T13:22:09.056Z,75.34
2018-06-29T13:24:38.992Z,75.14
2018-06-29T13:27:09.362Z,75.62
2018-06-29T13:29:39.247Z,76.06
2018-06-29T13:32:09.105Z,76.71
2018-06-29T13:34:39.097Z,77.03
2018-06-29T13:37:10.289Z,76.58
2018-06-29T13:39:40.529Z,74.92
2018-06-29T13:42:11.168Z,74.84
2018-06-29T13:44:41.099Z,75.07
2018-06-29T13:47:11.605Z,74.45
2018-06-29T13:49:41.638Z,73.89
2018-06-29T13:52:11.869Z,74.95
2018-06-29T13:54:43.079Z,74.86
2018-06-29T13:57:13.142Z,73.91
2018-06-29T13:59:43.087Z,74.25
2018-06-29T14:02:13.126Z,73.67
2018-06-29T14:04:43.130Z,74.47
2018-06-29T14:07:13.737Z,74.33
2018-06-29T14:09:43.679Z,74.32
2018-06-29T14:12:13.999Z,72.97
2018-06-29T14:14:43.847Z,74.27
2018-06-29T14:17:14.243Z,73.89
2018-06-29T14:19:44.399Z,74.25
2018-06-29T14:22:14.472Z,74.81
2018-06-29T14:24:44.675Z,74.46
2018-06-29T14:27:14.860Z,74.68
2018-06-29T14:29:44.897Z,75.96
2018-06-29T14:32:15.211Z,75.57
2018-06-29T14:34:45.339Z,75.43
2018-06-29T14:37:16.394Z,75.87
2018-06-29T14:39:46.981Z,76.12
2018-06-29T14:42:16.914Z,75.52
2018-06-29T14:44:46.914Z,75.77
2018-06-29T14:47:17.316Z,76.48
2018-06-29T14:49:47.198Z,76.15
2018-06-29T14:52:17.500Z,76.16
2018-06-29T14:54:48.001Z,76.67
2018-06-29T14:57:17.936Z,76.53
2018-06-29T14:59:48.654Z,76.67
2018-06-29T15:02:18.788Z,76.77
2018-06-29T15:04:48.923Z,75.72
2018-06-29T15:07:18.912Z,76.48
2018-06-29T15:09:49.802Z,76.74
2018-06-29T15:12:23.134Z,76.37
2018-06-29T15:14:53.946Z,76.23
2018-06-29T15:17:26.916Z,76.53
2018-06-29T15:19:58.242Z,76.81
2018-06-29T15:22:28.839Z,76.35
2018-06-29T15:25:00.010Z,76.68
2018-06-29T15:27:40.324Z,76.82
2018-06-29T15:30:11.743Z,76.95
2018-06-29T15:32:44.680Z,77.23
2018-06-29T15:35:17.712Z,77.41
2018-06-29T15:37:52.890Z,78.27
2018-06-29T15:40:25.376Z,78.53
2018-06-29T15:42:58.247Z,78.66
2018-06-29T15:45:29.381Z,79.30
2018-06-29T15:48:02.435Z,79.05
2018-06-29T15:50:33.896Z,79.35
2018-06-29T15:53:12.402Z,78.89
2018-06-29T15:55:43.820Z,79.11
2018-06-29T15:58:15.021Z,78.37
2018-06-29T16:00:46.807Z,79.02
2018-06-29T16:03:16.803Z,80.00
2018-06-29T16:05:47.074Z,79.82
2018-06-29T16:08:18.676Z,80.44
2018-06-29T16:10:54.410Z,80.93
2018-06-29T16:13:26.037Z,80.54
2018-06-29T16:16:00.385Z,80.25
2018-06-29T16:18:30.723Z,80.72
2018-06-29T16:21:04.748Z,81.15
2018-06-29T16:23:41.530Z,81.37
2018-06-29T16:26:19.319Z,82.12
2018-06-29T16:28:52.541Z,81.74
2018-06-29T16:31:31.186Z,82.27
2018-06-29T16:34:03.920Z,82.59
2018-06-29T16:36:53.185Z,81.87
2018-06-29T16:39:28.662Z,82.65
2018-06-29T16:42:05.606Z,82.64
2018-06-29T16:44:35.641Z,81.33
2018-06-29T16:47:10.700Z,80.75
2018-06-29T16:49:41.869Z,80.10
2018-06-29T16:52:13.593Z,80.56
2018-06-29T16:54:46.686Z,81.46
2018-06-29T16:57:20.348Z,81.63
2018-06-29T16:59:50.662Z,81.98
2018-06-29T17:02:21.580Z,82.19
2018-06-29T17:04:52.975Z,82.09
2018-06-29T17:07:23.469Z,82.61
2018-06-29T17:09:57.997Z,83.10
2018-06-29T17:12:29.077Z,82.22
2018-06-29T17:15:00.637Z,81.49
2018-06-29T17:17:32.466Z,81.65
2018-06-29T17:20:02.982Z,81.03
2018-06-29T17:22:33.142Z,80.79
2018-06-29T17:25:03.881Z,80.22
2018-06-29T17:27:38.705Z,80.18
2018-06-29T17:30:11.138Z,79.68
2018-06-29T17:32:43.455Z,79.47
2018-06-29T17:35:17.640Z,80.34
2018-06-29T17:37:48.028Z,80.04
2018-06-29T17:40:19.420Z,79.39
2018-06-29T17:42:50.767Z,79.56
2018-06-29T17:45:22.315Z,79.85
2018-06-29T17:47:53.324Z,79.01
2018-06-29T17:50:25.226Z,79.45
2018-06-29T17:52:55.651Z,79.63
2018-06-29T17:55:26.674Z,79.77
2018-06-29T17:57:57.967Z,80.46
2018-06-29T18:00:29.369Z,80.25
2018-06-29T18:03:03.030Z,80.87
2018-06-29T18:05:33.911Z,81.06
2018-06-29T18:08:04.189Z,81.26
2018-06-29T18:10:34.842Z,81.26
2018-06-29T18:13:05.139Z,81.63
2018-06-29T18:15:35.545Z,81.39
2018-06-29T18:18:06.009Z,81.99
2018-06-29T18:20:36.997Z,81.87
2018-06-29T18:23:07.727Z,82.62
2018-06-29T18:25:37.716Z,82.80
2018-06-29T18:28:08.216Z,81.72
2018-06-29T18:30:39.296Z,82.35
2018-06-29T18:33:14.442Z,82.71
2018-06-29T18:35:45.702Z,82.63
2018-06-29T18:38:17.040Z,82.70
2018-06-29T18:40:47.709Z,82.98
2018-06-29T18:43:18.013Z,82.78
2018-06-29T18:45:48.606Z,82.74
2018-06-29T18:48:19.196Z,81.82
2018-06-29T18:50:49.837Z,81.93
2018-06-29T18:53:19.860Z,81.65
2018-06-29T18:55:50.316Z,81.67
2018-06-29T18:58:20.279Z,81.06
2018-06-29T19:00:50.952Z,81.56
2018-06-29T19:03:21.826Z,80.75
2018-06-29T19:05:52.696Z,80.90
2018-06-29T19:08:23.629Z,79.93
2018-06-29T19:10:54.564Z,79.58
2018-06-29T19:13:24.827Z,79.22
2018-06-29T19:15:55.910Z,79.72
2018-06-29T19:18:26.105Z,78.21
2018-06-29T19:20:56.605Z,78.27
2018-06-29T19:23:27.584Z,77.71
2018-06-29T19:25:58.185Z,78.00
2018-06-29T19:28:28.337Z,78.40
2018-06-29T19:30:58.932Z,76.98
2018-06-29T19:33:29.692Z,77.58
2018-06-29T19:36:00.765Z,78.52
2018-06-29T19:38:31.396Z,78.64
2018-06-29T19:41:02.076Z,78.32
2018-06-29T19:43:32.389Z,78.85
2018-06-29T19:46:03.092Z,78.01
2018-06-29T19:48:33.517Z,77.82
2018-06-29T19:51:04.941Z,78.28
2018-06-29T19:53:35.672Z,79.12
2018-06-29T19:56:06.755Z,80.12
2018-06-29T19:58:38.620Z,80.40
2018-06-29T20:01:09.141Z,80.11
2018-06-29T20:03:39.331Z,78.92
2018-06-29T20:06:09.872Z,78.47
2018-06-29T20:08:40.380Z,78.59
2018-06-29T20:11:11.027Z,78.13
2018-06-29T20:13:42.107Z,78.28
2018-06-29T20:16:12.768Z,77.31
2018-06-29T20:18:43.279Z,77.56
2018-06-29T20:21:13.986Z,76.96
2018-06-29T20:23:44.871Z,77.13
2018-06-29T20:26:15.935Z,78.04
2018-06-29T20:28:47.629Z,77.71
2018-06-29T20:31:18.275Z,78.52
2018-06-29T20:33:49.636Z,77.93
2018-06-29T20:36:20.267Z,78.28
2018-06-29T20:38:50.737Z,78.33
2018-06-29T20:41:21.084Z,78.68
2018-06-29T20:43:51.618Z,79.07
2018-06-29T20:46:22.594Z,79.54
2018-06-29T20:48:54.078Z,80.10
2018-06-29T20:51:26.096Z,79.60
2018-06-29T20:53:57.659Z,79.42
2018-06-29T20:56:28.490Z,80.00
2018-06-29T20:58:59.255Z,79.82
2018-06-29T21:01:29.906Z,80.83
2018-06-29T21:04:00.557Z,81.07
2018-06-29T21:06:31.511Z,79.29
2018-06-29T21:09:02.702Z,80.47
2018-06-29T21:11:33.960Z,79.80
2018-06-29T21:14:04.401Z,79.55
2018-06-29T21:16:34.537Z,79.54
2018-06-29T21:19:05.681Z,80.03
2018-06-29T21:21:35.739Z,79.99
2018-06-29T21:24:06.325Z,78.89
2018-06-29T21:26:36.283Z,78.45
2018-06-29T21:29:07.658Z,78.55
2018-06-29T21:31:37.848Z,78.45
2018-06-29T21:34:08.296Z,78.07
2018-06-29T21:36:40.039Z,78.20
2018-06-29T21:39:12.083Z,78.05
2018-06-29T21:41:42.059Z,78.10
2018-06-29T21:44:12.516Z,79.04
2018-06-29T21:46:43.056Z,79.79
2018-06-29T21:49:13.191Z,79.79
2018-06-29T21:51:43.365Z,79.61
2018-06-29T21:54:13.841Z,79.58
2018-06-29T21:56:44.411Z,79.37
2018-06-29T21:59:14.615Z,79.24
2018-06-29T22:01:46.124Z,78.77
2018-06-29T22:04:16.486Z,78.73
2018-06-29T22:06:47.251Z,78.26
2018-06-29T22:09:18.025Z,78.21
2018-06-29T22:11:48.505Z,78.16
2018-06-29T22:14:18.783Z,77.61
2018-06-29T22:16:48.872Z,77.80
2018-06-29T22:19:18.964Z,77.84
2018-06-29T22:21:49.223Z,77.46
2018-06-29T22:24:19.169Z,77.52
2018-06-29T22:26:49.951Z,77.33
2018-06-29T22:29:20.380Z,77.07
2018-06-29T22:31:50.802Z,76.89
2018-06-29T22:34:21.086Z,77.10
2018-06-29T22:36:51.129Z,76.80
2018-06-29T22:39:21.619Z,76.49
2018-06-29T22:41:51.665Z,76.10
2018-06-29T22:44:21.890Z,76.08
2018-06-29T22:46:52.266Z,76.37
2018-06-29T22:49:22.659Z,76.52
2018-06-29T22:51:52.660Z,77.66
2018-06-29T22:54:23.797Z,78.13
2018-06-29T22:56:54.382Z,78.81
2018-06-29T22:59:25.191Z,78.85
2018-06-29T23:01:55.477Z,78.25
2018-06-29T23:04:25.518Z,78.29
2018-06-29T23:06:56.530Z,78.75
2018-06-29T23:09:27.977Z,79.14
2018-06-29T23:11:58.160Z,79.61
2018-06-29T23:14:29.053Z,79.35
2018-06-29T23:16:59.379Z,79.38
2018-06-29T23:19:29.864Z,79.16
2018-06-29T23:22:00.273Z,78.44
2018-06-29T23:24:31.128Z,78.11
2018-06-29T23:27:01.585Z,77.98
2018-06-29T23:29:32.602Z,78.65
2018-06-29T23:32:04.003Z,78.86
2018-06-29T23:34:34.942Z,78.58
2018-06-29T23:37:05.656Z,78.12
2018-06-29T23:39:36.196Z,77.80
2018-06-29T23:42:06.548Z,78.37
2018-06-29T23:44:37.088Z,78.50
2018-06-29T23:47:07.719Z,77.83
2018-06-29T23:49:37.868Z,78.41
2018-06-29T23:52:09.008Z,78.44
2018-06-29T23:54:39.171Z,78.22
2018-06-29T23:57:09.638Z,77.56
2018-06-29T23:59:39.779Z,77.70
